Weather at Ardmore Downtown Executive Airport

Public forecast

Using degrees Fahrenheit for public forecast. Weather courtesy of forecast.io.

Current aviation weather report (METAR) for Ardmore Downtown Executive Airport

(retrieved 0 seconds ago)

Closest aviation forecast (TAF) to Ardmore Downtown Executive Airport

Closest forecast is Durant Regional Airport - Eaker Field, 38.2 nm (70.8 km) ESE.

2024/05/29 18:33 (retrieved 10 minutes ago)

TAF KDUA 291731Z 2918/3018 11005KT P6SM SCT030 FM301200 14008KT P6SM OVC010 PROB30 3012/3018 3SM TSRA BR OVC004CB